Time;durP1;ratioP1;P1;durP2;ratioP2;P2;SDS_P1;SDS_P2;PMS_P1;PMS_P2;Temp;Humidity;BMP_temperature;BMP_pressure;BME280_temperature;BME280_humidity;BME280_pressure;Samples;Min_cycle;Max_cycle;Signal;HPM_P1;HPM_P2
2020/12/04 00:00:33;;;;;;;1.67;1.57;;;19.00;23.50;;;;;;5093815;28;20186;-52
2020/12/04 00:03:02;;;;;;;2.07;1.87;;;18.90;23.50;;;;;;5075779;28;20632;-52
2020/12/04 00:05:27;;;;;;;2.70;1.67;;;18.90;23.50;;;;;;5075379;28;20169;-51
2020/12/04 00:07:53;;;;;;;1.43;1.33;;;18.90;23.40;;;;;;5093832;28;20547;-51
2020/12/04 00:10:19;;;;;;;2.10;1.90;;;19.00;23.50;;;;;;5075478;28;20162;-51
2020/12/04 00:12:44;;;;;;;1.90;1.80;;;19.00;23.50;;;;;;5093701;28;20656;-51
2020/12/04 00:15:10;;;;;;;2.00;1.83;;;18.90;23.40;;;;;;5093528;28;20513;-51
2020/12/04 00:17:36;;;;;;;2.20;2.00;;;19.00;23.50;;;;;;5075746;28;20158;-52
2020/12/04 00:20:04;;;;;;;2.05;1.45;;;19.00;23.50;;;;;;5093052;28;20222;-52
2020/12/04 00:22:29;;;;;;;2.08;1.60;;;19.00;23.50;;;;;;5075493;28;20235;-51
2020/12/04 00:24:55;;;;;;;1.77;1.30;;;19.00;23.50;;;;;;5093173;28;20154;-52
2020/12/04 00:27:21;;;;;;;2.40;1.63;;;19.00;23.50;;;;;;5075554;28;20215;-52
2020/12/04 00:29:46;;;;;;;1.70;1.60;;;19.00;23.50;;;;;;5093408;28;20176;-52
2020/12/04 00:32:12;;;;;;;2.13;1.93;;;19.00;23.50;;;;;;5094110;28;20162;-52
2020/12/04 00:34:38;;;;;;;1.93;1.83;;;19.00;23.50;;;;;;5097011;28;20165;-52
2020/12/04 00:37:03;;;;;;;2.03;1.83;;;19.00;23.50;;;;;;5097495;28;20567;-52
2020/12/04 00:39:29;;;;;;;2.00;1.90;;;19.00;23.50;;;;;;5079270;28;20185;-52
2020/12/04 00:41:59;;;;;;;1.27;1.17;;;19.00;23.50;;;;;;5097355;28;20175;-52
2020/12/04 00:44:25;;;;;;;2.58;1.60;;;19.00;23.50;;;;;;5097436;28;20154;-52
2020/12/04 00:46:51;;;;;;;2.75;2.10;;;19.10;23.60;;;;;;5097147;28;20162;-52
2020/12/04 00:49:17;;;;;;;1.30;1.20;;;19.10;23.60;;;;;;5097205;28;20571;-52
2020/12/04 00:51:42;;;;;;;1.27;1.17;;;19.10;23.50;;;;;;5096725;28;20165;-51
2020/12/04 00:54:08;;;;;;;1.60;1.50;;;19.10;23.40;;;;;;5097193;28;20610;-51
2020/12/04 00:56:34;;;;;;;2.08;1.30;;;19.10;23.30;;;;;;5096977;28;20189;-52
2020/12/04 00:59:03;;;;;;;1.73;1.63;;;19.20;23.40;;;;;;5097031;28;20209;-52
2020/12/04 01:01:32;;;;;;;1.83;1.63;;;19.20;23.30;;;;;;5096969;28;20227;-50
2020/12/04 01:03:58;;;;;;;1.67;1.58;;;19.20;23.30;;;;;;5096882;28;20629;-51
2020/12/04 01:06:23;;;;;;;1.60;1.50;;;19.20;23.20;;;;;;5078377;28;20217;-51
2020/12/04 01:08:49;;;;;;;1.67;1.57;;;19.20;23.20;;;;;;5096791;28;20237;-51
2020/12/04 01:11:14;;;;;;;1.60;1.43;;;19.20;23.10;;;;;;5096844;28;20617;-51
2020/12/04 01:13:40;;;;;;;1.43;1.33;;;19.30;23.10;;;;;;5096886;28;20261;-51
2020/12/04 01:16:12;;;;;;;1.53;1.43;;;19.30;23.10;;;;;;5096614;28;20185;-52
2020/12/04 01:18:38;;;;;;;1.58;1.40;;;19.40;23.10;;;;;;5096783;28;20192;-52
2020/12/04 01:21:10;;;;;;;1.70;1.40;;;19.40;23.10;;;;;;5096022;28;20233;-52
2020/12/04 01:23:35;;;;;;;1.60;1.40;;;19.40;23.00;;;;;;5096737;28;20154;-52
2020/12/04 01:26:01;;;;;;;1.20;1.10;;;19.40;23.00;;;;;;5078352;28;20412;-52
2020/12/04 01:28:27;;;;;;;1.57;1.47;;;19.50;23.00;;;;;;5096724;28;20559;-52
2020/12/04 01:30:52;;;;;;;1.90;1.70;;;19.50;23.00;;;;;;5096489;28;20435;-52
2020/12/04 01:33:18;;;;;;;1.53;1.40;;;19.50;22.90;;;;;;5078776;28;20177;-52
2020/12/04 01:35:44;;;;;;;2.30;2.10;;;19.50;22.90;;;;;;5095779;28;20541;-51
2020/12/04 01:38:10;;;;;;;1.43;1.30;;;19.50;22.80;;;;;;5096600;28;20399;-51
2020/12/04 01:40:35;;;;;;;1.90;1.80;;;19.60;22.80;;;;;;5096283;28;20180;-51
2020/12/04 01:43:01;;;;;;;1.67;1.40;;;19.60;22.80;;;;;;5096290;28;20681;-51
2020/12/04 01:45:27;;;;;;;2.30;2.10;;;19.70;22.80;;;;;;5095531;28;20184;-52
2020/12/04 01:47:55;;;;;;;1.97;1.77;;;19.60;22.70;;;;;;5096019;28;20642;-52
2020/12/04 01:50:24;;;;;;;1.48;1.38;;;19.70;22.80;;;;;;5095476;28;20169;-52
2020/12/04 01:52:50;;;;;;;1.40;1.30;;;19.70;22.70;;;;;;5096127;28;20148;-52
2020/12/04 01:55:16;;;;;;;2.57;1.50;;;19.70;22.70;;;;;;5095927;28;20240;-52
2020/12/04 01:57:46;;;;;;;1.45;1.33;;;19.70;22.70;;;;;;5095732;28;20477;-52
2020/12/04 02:00:12;;;;;;;1.50;1.40;;;19.80;22.70;;;;;;5095995;28;20207;-52
2020/12/04 02:02:38;;;;;;;1.23;1.10;;;19.80;22.70;;;;;;5095963;28;20178;-52
2020/12/04 02:05:04;;;;;;;1.30;1.20;;;19.80;22.60;;;;;;5095067;28;20158;-52
2020/12/04 02:07:55;;;;;;;1.53;1.40;;;19.80;22.50;;;;;;5095941;28;20666;-52
2020/12/04 02:10:21;;;;;;;1.30;1.17;;;19.90;22.60;;;;;;5096073;28;20154;-52
2020/12/04 02:12:48;;;;;;;1.10;1.00;;;19.90;22.60;;;;;;5095901;28;20241;-52
2020/12/04 02:15:15;;;;;;;1.30;1.20;;;19.90;22.50;;;;;;5095515;28;20215;-52
2020/12/04 02:17:41;;;;;;;1.90;1.77;;;19.90;22.50;;;;;;5095698;28;20229;-52
2020/12/04 02:20:09;;;;;;;1.45;1.35;;;19.90;22.50;;;;;;5094851;28;20186;-52
2020/12/04 02:22:36;;;;;;;1.25;1.15;;;19.90;22.50;;;;;;5095400;28;20161;-52
2020/12/04 02:25:04;;;;;;;1.40;1.30;;;19.90;22.50;;;;;;5095291;28;20158;-52
2020/12/04 02:27:32;;;;;;;1.00;0.90;;;20.00;22.50;;;;;;5095467;28;20142;-52
2020/12/04 02:30:04;;;;;;;1.60;1.50;;;20.00;22.50;;;;;;5077204;28;20316;-52
2020/12/04 02:32:29;;;;;;;1.42;1.33;;;20.00;22.50;;;;;;5077262;28;20166;-52
2020/12/04 02:34:55;;;;;;;1.17;1.07;;;20.00;22.50;;;;;;5094646;28;20188;-52
2020/12/04 02:37:20;;;;;;;1.73;1.30;;;20.00;22.40;;;;;;5095193;28;20189;-52
2020/12/04 02:39:46;;;;;;;1.33;1.20;;;20.00;22.40;;;;;;5095064;28;20161;-52
2020/12/04 02:42:12;;;;;;;1.97;1.53;;;20.00;22.40;;;;;;5095290;28;20162;-52
2020/12/04 02:44:37;;;;;;;1.30;1.20;;;20.00;22.30;;;;;;5095015;28;20169;-52
2020/12/04 02:47:03;;;;;;;1.30;1.10;;;20.00;22.40;;;;;;5094926;28;20625;-52
2020/12/04 02:49:32;;;;;;;1.52;1.30;;;20.00;22.30;;;;;;5094832;28;20204;-52
2020/12/04 02:51:58;;;;;;;1.50;1.35;;;20.10;22.40;;;;;;5059856;28;20178;-52
2020/12/04 02:54:23;;;;;;;1.60;1.23;;;20.00;22.30;;;;;;5095259;28;20168;-52
2020/12/04 02:56:49;;;;;;;2.43;1.30;;;20.10;22.40;;;;;;5093716;28;20644;-51
2020/12/04 02:59:15;;;;;;;1.20;1.10;;;20.10;22.40;;;;;;5094660;28;20250;-51
2020/12/04 03:01:40;;;;;;;1.40;1.30;;;20.10;22.40;;;;;;5076425;28;20627;-51
2020/12/04 03:04:06;;;;;;;0.80;0.80;;;20.10;22.40;;;;;;5076705;28;20162;-52
2020/12/04 03:06:31;;;;;;;1.37;1.27;;;20.10;22.30;;;;;;5094238;28;20625;-52
2020/12/04 03:08:57;;;;;;;1.27;1.17;;;20.10;22.30;;;;;;5094664;28;20524;-52
2020/12/04 03:11:24;;;;;;;1.30;1.20;;;20.10;22.30;;;;;;5094576;28;20161;-52
2020/12/04 03:13:51;;;;;;;2.17;1.17;;;20.10;22.30;;;;;;5094523;28;20274;-52
2020/12/04 03:16:17;;;;;;;1.80;1.70;;;20.10;22.30;;;;;;5094412;28;20178;-51
2020/12/04 03:18:43;;;;;;;1.63;1.40;;;20.10;22.30;;;;;;5094417;28;20157;-51
2020/12/04 03:21:09;;;;;;;1.00;0.90;;;20.10;22.30;;;;;;5075706;28;20419;-51
2020/12/04 03:23:34;;;;;;;1.30;1.13;;;20.10;22.30;;;;;;5076220;28;20170;-51
2020/12/04 03:26:03;;;;;;;1.60;1.50;;;20.10;22.30;;;;;;5094156;28;20415;-52
2020/12/04 03:28:31;;;;;;;1.17;1.00;;;20.10;22.30;;;;;;5094365;28;20200;-51
2020/12/04 03:30:59;;;;;;;1.35;1.25;;;20.10;22.30;;;;;;5059302;28;20276;-51
2020/12/04 03:33:24;;;;;;;1.45;1.35;;;20.10;22.30;;;;;;5094401;28;20169;-51
2020/12/04 03:35:50;;;;;;;1.37;1.07;;;20.10;22.40;;;;;;5075549;28;20533;-51
2020/12/04 03:38:16;;;;;;;1.20;1.03;;;20.10;22.30;;;;;;5094180;28;20166;-52
2020/12/04 03:40:44;;;;;;;1.67;1.40;;;20.10;22.30;;;;;;5094013;28;20150;-52
2020/12/04 03:43:09;;;;;;;1.90;1.50;;;20.10;22.30;;;;;;5075811;28;20249;-52
2020/12/04 03:45:35;;;;;;;1.30;1.20;;;20.10;22.30;;;;;;5075821;28;20264;-51
2020/12/04 03:48:00;;;;;;;1.27;1.17;;;20.10;22.30;;;;;;5093868;28;20209;-52
2020/12/04 03:50:26;;;;;;;1.27;1.17;;;20.10;22.30;;;;;;5093296;28;20592;-52
2020/12/04 03:52:52;;;;;;;1.13;1.03;;;20.10;22.30;;;;;;5094010;28;20165;-52
2020/12/04 03:55:17;;;;;;;1.13;1.03;;;20.10;22.30;;;;;;5093751;28;20168;-52
2020/12/04 03:57:43;;;;;;;1.20;1.10;;;20.10;22.30;;;;;;5093817;28;20192;-52
2020/12/04 04:00:09;;;;;;;1.47;1.37;;;20.10;22.30;;;;;;5093646;28;20529;-52
2020/12/04 04:02:34;;;;;;;1.30;1.20;;;20.10;22.30;;;;;;5075605;28;20170;-52
2020/12/04 04:05:00;;;;;;;1.30;1.20;;;20.10;22.40;;;;;;5093280;28;20184;-52
2020/12/04 04:07:25;;;;;;;1.60;1.50;;;20.10;22.40;;;;;;5093695;28;20158;-52
2020/12/04 04:09:51;;;;;;;1.40;1.30;;;20.10;22.40;;;;;;5093520;28;20173;-52
2020/12/04 04:12:16;;;;;;;1.50;1.40;;;20.10;22.40;;;;;;5093883;28;20158;-52
2020/12/04 04:14:42;;;;;;;1.10;1.00;;;20.10;22.40;;;;;;5058604;28;20170;-51
2020/12/04 04:17:08;;;;;;;1.30;1.20;;;20.10;22.40;;;;;;5093917;28;20239;-51
2020/12/04 04:19:33;;;;;;;1.10;1.00;;;20.10;22.40;;;;;;5093326;28;20241;-52
2020/12/04 04:21:59;;;;;;;1.63;1.20;;;20.10;22.40;;;;;;5093364;28;20220;-51
2020/12/04 04:24:24;;;;;;;1.60;1.37;;;20.10;22.40;;;;;;5093550;28;20165;-52
2020/12/04 04:26:50;;;;;;;1.00;1.00;;;20.10;22.40;;;;;;5093515;28;20203;-52
2020/12/04 04:29:16;;;;;;;0.90;0.90;;;20.10;22.40;;;;;;5093705;28;20159;-52
2020/12/04 04:31:42;;;;;;;0.90;0.90;;;20.10;22.40;;;;;;5093442;28;20160;-52
2020/12/04 04:34:08;;;;;;;1.80;1.07;;;20.10;22.40;;;;;;5093810;28;20408;-51
2020/12/04 04:36:33;;;;;;;1.30;1.20;;;20.10;22.40;;;;;;5092794;28;20872;-51
2020/12/04 04:39:02;;;;;;;1.17;1.07;;;20.10;22.40;;;;;;5093440;28;20162;-52
2020/12/04 04:41:31;;;;;;;1.35;1.20;;;20.10;22.40;;;;;;5093265;28;20396;-52
2020/12/04 04:43:56;;;;;;;1.23;1.13;;;20.10;22.40;;;;;;5093270;28;20158;-52
2020/12/04 04:46:36;;;;;;;1.20;1.10;;;20.10;22.40;;;;;;5093264;28;20165;-52
2020/12/04 04:49:13;;;;;;;1.00;0.95;;;20.10;22.40;;;;;;5093190;28;20173;-52
2020/12/04 04:51:42;;;;;;;1.10;1.00;;;20.10;22.40;;;;;;5092728;28;20153;-52
2020/12/04 04:54:09;;;;;;;0.95;0.85;;;20.10;22.30;;;;;;5093423;28;20166;-52
2020/12/04 04:56:35;;;;;;;1.13;1.02;;;20.10;22.30;;;;;;5093216;28;20649;-51
2020/12/04 04:59:01;;;;;;;1.00;1.00;;;20.20;22.40;;;;;;5093071;28;20232;-53
2020/12/04 05:01:26;;;;;;;1.20;1.10;;;20.20;22.40;;;;;;5093231;28;20189;-51
2020/12/04 05:04:05;;;;;;;0.90;0.90;;;20.20;22.40;;;;;;5093511;28;20158;-52
2020/12/04 05:06:35;;;;;;;1.40;1.30;;;20.20;22.30;;;;;;5076070;28;20165;-52
2020/12/04 05:09:03;;;;;;;1.35;1.25;;;20.20;22.30;;;;;;5093295;28;20154;-52
2020/12/04 05:11:33;;;;;;;1.25;1.15;;;20.20;22.30;;;;;;5093119;28;20253;-52
2020/12/04 05:14:16;;;;;;;1.90;1.70;;;20.20;22.20;;;;;;5093101;28;20174;-52
2020/12/04 05:16:43;;;;;;;0.90;0.90;;;20.20;22.80;;;;;;5092971;28;20197;-52
2020/12/04 05:19:10;;;;;;;1.58;1.48;;;20.30;22.30;;;;;;5093691;28;20154;-52
2020/12/04 05:21:37;;;;;;;1.20;1.10;;;20.30;22.30;;;;;;5096301;28;20181;-52
2020/12/04 05:24:03;;;;;;;1.35;1.08;;;20.30;22.30;;;;;;5096695;28;20253;-52
2020/12/04 05:26:35;;;;;;;1.20;0.90;;;20.30;22.20;;;;;;5078348;28;20174;-52
2020/12/04 05:29:02;;;;;;;1.23;1.10;;;20.30;22.20;;;;;;5096558;28;20150;-52
2020/12/04 05:31:30;;;;;;;1.30;1.00;;;20.30;22.20;;;;;;5078355;28;20266;-53
2020/12/04 05:33:56;;;;;;;1.50;1.27;;;20.40;22.20;;;;;;5096486;28;20169;-52
2020/12/04 05:36:26;;;;;;;1.10;0.95;;;20.40;22.20;;;;;;5095762;28;20190;-52
2020/12/04 05:38:53;;;;;;;1.08;0.95;;;20.40;22.10;;;;;;5096624;28;20518;-52
2020/12/04 05:41:18;;;;;;;0.90;0.90;;;20.40;22.10;;;;;;5095979;28;20162;-52
2020/12/04 05:43:45;;;;;;;1.00;0.90;;;20.50;22.10;;;;;;5096238;28;20486;-52
2020/12/04 05:46:11;;;;;;;1.20;1.10;;;20.50;22.10;;;;;;5078166;28;20412;-52
2020/12/04 05:48:36;;;;;;;1.00;0.90;;;20.50;22.00;;;;;;5096123;28;20268;-52
2020/12/04 05:51:02;;;;;;;0.70;0.70;;;20.50;22.00;;;;;;5095565;28;20248;-51
2020/12/04 05:53:28;;;;;;;1.17;1.07;;;20.50;22.00;;;;;;5078093;28;20178;-52
2020/12/04 05:55:54;;;;;;;1.27;1.17;;;20.60;22.10;;;;;;5095758;28;20743;-52
2020/12/04 05:58:24;;;;;;;1.17;0.90;;;20.60;22.00;;;;;;5095990;28;20252;-52
2020/12/04 06:00:50;;;;;;;1.13;1.02;;;20.60;21.90;;;;;;5095701;28;20153;-52
2020/12/04 06:03:16;;;;;;;1.00;0.90;;;20.70;22.00;;;;;;5095822;28;20185;-52
2020/12/04 06:05:41;;;;;;;1.13;0.93;;;20.70;21.90;;;;;;5095433;28;20246;-52
2020/12/04 06:08:07;;;;;;;0.90;0.90;;;20.70;21.90;;;;;;5095718;28;20162;-52
2020/12/04 06:10:34;;;;;;;1.20;1.10;;;20.70;22.40;;;;;;5095551;28;20158;-53
2020/12/04 06:13:03;;;;;;;1.33;1.00;;;20.70;21.80;;;;;;5061006;28;20186;-52
2020/12/04 06:15:33;;;;;;;1.45;1.00;;;20.80;21.80;;;;;;5077348;28;20623;-52
2020/12/04 06:18:06;;;;;;;1.15;1.05;;;20.80;21.80;;;;;;5095720;28;20237;-52
2020/12/04 06:20:41;;;;;;;1.95;1.00;;;20.80;21.80;;;;;;5095017;28;20191;-52
2020/12/04 06:23:25;;;;;;;1.23;1.13;;;20.80;21.70;;;;;;5095946;28;20211;-53
2020/12/04 06:25:55;;;;;;;1.15;1.05;;;20.90;21.80;;;;;;5095033;28;20177;-52
2020/12/04 06:28:22;;;;;;;1.10;0.93;;;20.90;21.70;;;;;;5077177;28;20166;-53
2020/12/04 06:31:07;;;;;;;0.98;0.88;;;20.90;21.70;;;;;;5095012;28;20161;-52
2020/12/04 06:33:49;;;;;;;1.35;1.25;;;20.90;21.60;;;;;;5095285;28;20333;-52
2020/12/04 06:36:30;;;;;;;1.00;0.90;;;21.00;21.70;;;;;;5094206;28;20289;-52
2020/12/04 06:38:56;;;;;;;1.02;0.93;;;21.00;21.60;;;;;;5095059;28;20685;-52
2020/12/04 06:41:44;;;;;;;1.40;1.25;;;20.50;21.20;;;;;;5076436;28;20565;-52
2020/12/04 06:44:27;;;;;;;1.88;1.08;;;21.00;21.60;;;;;;5094645;28;20154;-53
2020/12/04 06:46:58;;;;;;;1.17;1.08;;;21.10;21.60;;;;;;5094364;28;20158;-52
2020/12/04 06:52:12;;;;;;;1.23;0.85;;;21.10;21.50;;;;;;5094903;28;20157;-52
2020/12/04 06:54:45;;;;;;;0.77;0.77;;;21.10;21.40;;;;;;5094246;28;20224;-53
2020/12/04 06:57:11;;;;;;;0.88;0.85;;;21.20;21.60;;;;;;5094643;28;20185;-52
2020/12/04 06:59:41;;;;;;;1.05;0.95;;;21.20;21.40;;;;;;5094111;28;20274;-53
2020/12/04 07:02:17;;;;;;;2.03;1.23;;;21.20;21.40;;;;;;5095083;28;20150;-53
2020/12/04 07:04:54;;;;;;;1.10;1.00;;;21.20;21.30;;;;;;5075698;28;20157;-53
2020/12/04 07:07:20;;;;;;;1.10;1.00;;;21.20;21.30;;;;;;5059799;28;20489;-53
2020/12/04 07:09:58;;;;;;;0.80;0.63;;;21.30;21.30;;;;;;5094200;28;20165;-54
2020/12/04 07:12:26;;;;;;;1.10;1.00;;;21.30;21.30;;;;;;5076230;28;20187;-52
2020/12/04 07:14:56;;;;;;;5.30;4.90;;;21.30;21.20;;;;;;5089883;28;20600;-52
2020/12/04 07:17:24;;;;;;;9.70;7.30;;;20.90;16.30;;;;;;5090593;28;20190;-55
2020/12/04 07:19:53;;;;;;;14.90;13.48;;;20.10;14.70;;;;;;5088881;28;20161;-52
2020/12/04 07:22:20;;;;;;;13.75;12.45;;;18.30;9.10;;;;;;5091407;28;20177;-51
2020/12/04 07:24:47;;;;;;;8.10;7.30;;;16.30;11.10;;;;;;5091728;28;20958;-52
2020/12/04 07:27:14;;;;;;;6.65;6.05;;;15.10;19.90;;;;;;5075377;28;20176;-53
2020/12/04 07:29:40;;;;;;;5.25;4.75;;;15.10;23.00;;;;;;5093786;28;20154;-53
2020/12/04 07:32:06;;;;;;;5.97;5.47;;;15.40;24.30;;;;;;5093256;28;20142;-53
2020/12/04 07:34:38;;;;;;;5.30;4.80;;;15.80;24.50;;;;;;5074375;28;20742;-52
2020/12/04 07:37:05;;;;;;;4.65;4.25;;;16.30;24.10;;;;;;5093525;28;20204;-54
2020/12/04 07:39:33;;;;;;;4.95;3.70;;;16.80;23.60;;;;;;5093346;28;20158;-53
2020/12/04 07:42:04;;;;;;;3.80;3.50;;;17.30;23.10;;;;;;5092880;28;20605;-54
2020/12/04 07:44:42;;;;;;;4.50;4.10;;;17.70;22.60;;;;;;5092916;28;20536;-53
2020/12/04 07:47:13;;;;;;;4.00;3.60;;;18.00;22.70;;;;;;5075084;28;20277;-53
2020/12/04 07:49:45;;;;;;;3.70;3.40;;;18.30;22.30;;;;;;5092409;28;20173;-53
2020/12/04 07:52:33;;;;;;;3.78;3.47;;;18.50;21.90;;;;;;5057835;28;20697;-53
2020/12/04 07:55:09;;;;;;;3.35;3.05;;;18.70;21.70;;;;;;5074683;28;20169;-52
2020/12/04 07:57:56;;;;;;;2.78;2.58;;;18.90;21.60;;;;;;5092634;28;20207;-52
2020/12/04 08:00:22;;;;;;;3.67;2.83;;;19.10;21.50;;;;;;5051625;28;20175;-52
2020/12/04 08:02:49;;;;;;;2.70;2.50;;;19.20;21.30;;;;;;5052490;28;20500;-51
2020/12/04 08:05:22;;;;;;;2.70;2.47;;;19.30;21.20;;;;;;5031514;28;20965;-52
2020/12/04 08:07:52;;;;;;;4.20;3.42;;;19.40;21.30;;;;;;4992193;28;20538;-51
2020/12/04 08:10:20;;;;;;;4.07;3.30;;;19.50;21.20;;;;;;5018956;28;20167;-52
2020/12/04 08:12:49;;;;;;;2.42;2.10;;;19.60;21.30;;;;;;5026521;28;20256;-52
2020/12/04 08:15:18;;;;;;;4.63;2.33;;;19.60;21.40;;;;;;5027111;28;20514;-52
2020/12/04 08:17:44;;;;;;;2.60;1.80;;;19.70;21.50;;;;;;5013938;28;20206;-51
2020/12/04 08:20:17;;;;;;;2.67;2.47;;;19.70;21.50;;;;;;5001072;28;20163;-52
2020/12/04 08:22:48;;;;;;;2.40;2.20;;;19.80;21.70;;;;;;5028037;28;20444;-52
2020/12/04 08:25:14;;;;;;;3.25;2.50;;;19.80;21.70;;;;;;5023434;28;20189;-51
2020/12/04 08:27:43;;;;;;;2.30;2.10;;;19.90;21.70;;;;;;5008053;28;20566;-51
2020/12/04 08:30:20;;;;;;;3.88;2.25;;;19.90;21.80;;;;;;5027183;28;20159;-52
2020/12/04 08:32:55;;;;;;;2.63;2.03;;;20.00;21.80;;;;;;5025721;28;20261;-50
2020/12/04 08:35:25;;;;;;;2.38;2.10;;;20.00;21.90;;;;;;5018040;28;20334;-52
2020/12/04 08:37:52;;;;;;;2.25;2.03;;;20.10;21.80;;;;;;5015742;28;20198;-50
2020/12/04 08:40:25;;;;;;;1.88;1.73;;;20.10;21.90;;;;;;5023575;28;20759;-50
2020/12/04 08:42:52;;;;;;;1.75;1.63;;;20.10;21.80;;;;;;5023822;28;20202;-52
2020/12/04 08:45:25;;;;;;;2.20;2.00;;;20.20;21.90;;;;;;5026354;28;20309;-52
2020/12/04 08:47:51;;;;;;;2.25;1.90;;;20.20;21.90;;;;;;5003037;28;20195;-52
2020/12/04 08:50:19;;;;;;;2.00;1.90;;;20.20;21.90;;;;;;5007763;28;20503;-52
2020/12/04 08:52:56;;;;;;;2.17;1.65;;;20.20;21.90;;;;;;5017123;28;20572;-52
2020/12/04 08:55:22;;;;;;;3.45;2.13;;;20.20;21.90;;;;;;5008181;28;20209;-52
2020/12/04 08:57:51;;;;;;;2.17;1.75;;;20.30;21.90;;;;;;5012628;28;20700;-51
2020/12/04 09:00:20;;;;;;;2.35;1.55;;;20.30;21.90;;;;;;5057182;28;20540;-52
2020/12/04 09:02:46;;;;;;;2.35;2.03;;;20.30;21.90;;;;;;5038970;28;20169;-52
2020/12/04 09:05:15;;;;;;;1.80;1.70;;;20.30;21.90;;;;;;5049073;28;20180;-51
2020/12/04 09:07:42;;;;;;;4.47;2.15;;;20.30;21.90;;;;;;5058463;28;20170;-51
2020/12/04 09:10:10;;;;;;;1.92;1.83;;;20.40;22.00;;;;;;5066726;28;20201;-52
2020/12/04 09:12:36;;;;;;;1.50;1.40;;;20.40;22.00;;;;;;5052449;28;20174;-51
2020/12/04 09:15:03;;;;;;;1.70;1.60;;;20.40;21.90;;;;;;5060116;28;20185;-51
2020/12/04 09:17:32;;;;;;;2.30;1.85;;;20.40;21.60;;;;;;5041397;28;20311;-51
2020/12/04 09:19:57;;;;;;;2.83;1.75;;;20.40;21.60;;;;;;5060810;28;20173;-51
2020/12/04 09:22:23;;;;;;;5.00;2.30;;;20.40;21.40;;;;;;5072820;28;20177;-51
2020/12/04 09:24:49;;;;;;;1.87;1.70;;;20.40;21.40;;;;;;5065456;28;20177;-51
2020/12/04 09:27:15;;;;;;;3.33;1.90;;;20.40;21.30;;;;;;5046368;28;20299;-50
2020/12/04 09:29:41;;;;;;;2.55;2.25;;;20.40;21.30;;;;;;5069325;28;20169;-52
2020/12/04 09:32:12;;;;;;;2.20;1.55;;;20.40;21.30;;;;;;5065010;28;20215;-50
2020/12/04 09:34:39;;;;;;;4.05;2.50;;;20.40;21.30;;;;;;5054064;28;20256;-51
2020/12/04 09:37:19;;;;;;;6.03;2.20;;;20.40;21.40;;;;;;5049028;28;20223;-51
2020/12/04 09:39:46;;;;;;;2.47;2.22;;;20.40;21.40;;;;;;5060314;28;20520;-51
2020/12/04 09:42:14;;;;;;;2.20;1.95;;;20.40;21.50;;;;;;5056276;28;21239;-51
2020/12/04 09:44:41;;;;;;;2.88;2.42;;;20.40;21.80;;;;;;5060728;28;21297;-53
2020/12/04 09:47:07;;;;;;;6.22;2.30;;;20.40;21.90;;;;;;5014464;28;20697;-52
2020/12/04 09:49:34;;;;;;;4.88;2.40;;;20.40;22.00;;;;;;5038412;28;20455;-52
2020/12/04 09:52:00;;;;;;;4.25;2.10;;;20.40;22.10;;;;;;5062946;28;20208;-52
2020/12/04 09:54:27;;;;;;;3.05;2.15;;;20.40;22.00;;;;;;5061163;28;20186;-52
2020/12/04 09:56:54;;;;;;;9.52;2.28;;;20.40;22.00;;;;;;5047928;28;20254;-53
2020/12/04 09:59:22;;;;;;;3.60;2.35;;;20.40;22.10;;;;;;5043967;28;20685;-51
2020/12/04 10:01:49;;;;;;;4.00;2.42;;;20.50;22.30;;;;;;5062615;28;20221;-52
2020/12/04 10:04:15;;;;;;;2.97;2.08;;;20.50;22.30;;;;;;5052926;28;20172;-51
2020/12/04 10:06:47;;;;;;;4.60;2.37;;;20.50;22.30;;;;;;5046997;28;20998;-53
2020/12/04 10:09:13;;;;;;;4.22;2.22;;;20.50;22.30;;;;;;5048680;28;20455;-53
2020/12/04 10:11:40;;;;;;;2.63;2.33;;;20.50;22.30;;;;;;5057214;28;21268;-53
2020/12/04 10:14:05;;;;;;;4.32;2.72;;;20.50;22.50;;;;;;5029700;28;20208;-52
2020/12/04 10:16:31;;;;;;;3.10;2.40;;;20.50;22.40;;;;;;5041302;28;20716;-52
2020/12/04 10:18:58;;;;;;;2.50;2.27;;;20.50;22.40;;;;;;5024273;28;20181;-51
2020/12/04 10:21:31;;;;;;;4.85;2.30;;;20.50;22.50;;;;;;5050519;28;20185;-52
2020/12/04 10:23:57;;;;;;;4.05;2.55;;;20.50;22.40;;;;;;5053243;28;20162;-52
2020/12/04 10:26:23;;;;;;;3.75;2.47;;;20.50;22.50;;;;;;5028997;28;20191;-53
2020/12/04 10:28:48;;;;;;;2.67;2.10;;;20.50;22.50;;;;;;5052572;28;20165;-51
2020/12/04 10:31:15;;;;;;;5.20;3.00;;;20.50;22.50;;;;;;5047628;28;20194;-51
2020/12/04 10:33:41;;;;;;;4.97;2.67;;;20.50;22.50;;;;;;5064514;28;20212;-52
2020/12/04 10:36:07;;;;;;;3.67;2.20;;;20.50;22.50;;;;;;5032848;28;20233;-53
2020/12/04 10:38:34;;;;;;;3.22;2.55;;;19.90;22.10;;;;;;5024736;28;20276;-54
2020/12/04 10:41:00;;;;;;;3.08;2.22;;;20.50;22.50;;;;;;5061014;28;20607;-52
2020/12/04 10:43:26;;;;;;;3.95;2.50;;;20.50;22.50;;;;;;5033176;28;20176;-53
2020/12/04 10:45:52;;;;;;;5.35;2.53;;;20.50;22.50;;;;;;5034665;28;20181;-51
2020/12/04 10:48:19;;;;;;;2.50;2.30;;;20.50;22.50;;;;;;5042579;28;20717;-51
2020/12/04 10:50:46;;;;;;;6.65;2.20;;;20.50;22.60;;;;;;5031187;28;20613;-52
2020/12/04 10:53:12;;;;;;;3.38;2.63;;;20.50;22.50;;;;;;5055532;28;20652;-51
2020/12/04 10:55:41;;;;;;;6.63;2.50;;;20.60;22.60;;;;;;5022488;28;20538;-52
2020/12/04 10:58:07;;;;;;;4.20;2.70;;;20.60;22.60;;;;;;5045767;28;20173;-52
2020/12/04 11:00:32;;;;;;;2.60;2.27;;;20.60;22.60;;;;;;5059070;28;22204;-51
2020/12/04 11:03:10;;;;;;;4.80;2.27;;;20.80;22.70;;;;;;5025632;28;20270;-51
2020/12/04 11:05:42;;;;;;;2.75;1.95;;;20.60;22.60;;;;;;5045093;28;20228;-53
2020/12/04 11:08:08;;;;;;;5.40;2.58;;;20.60;22.70;;;;;;5009483;28;21301;-52
2020/12/04 11:10:34;;;;;;;6.22;2.83;;;20.90;22.90;;;;;;5055594;28;20276;-52
2020/12/04 11:13:00;;;;;;;4.03;2.63;;;20.60;23.20;;;;;;5049088;28;20188;-51
2020/12/04 11:15:29;;;;;;;6.47;2.77;;;20.60;22.60;;;;;;5046466;28;20641;-51
2020/12/04 11:17:55;;;;;;;2.65;2.42;;;20.80;22.80;;;;;;5001604;28;21631;-51
2020/12/04 11:20:22;;;;;;;8.40;3.07;;;20.60;22.60;;;;;;5036225;28;20220;-51
2020/12/04 11:22:51;;;;;;;2.72;2.53;;;20.70;22.50;;;;;;5014212;28;20174;-52
2020/12/04 11:25:17;;;;;;;3.35;3.00;;;21.00;22.50;;;;;;5028320;28;20641;-52
2020/12/04 11:27:44;;;;;;;4.28;2.50;;;20.60;22.10;;;;;;5030797;28;20182;-53
2020/12/04 11:30:14;;;;;;;6.68;3.10;;;20.60;22.00;;;;;;5053709;28;20186;-53
2020/12/04 11:32:48;;;;;;;10.95;3.00;;;21.10;22.50;;;;;;5063613;28;20178;-52
2020/12/04 11:35:15;;;;;;;6.20;3.30;;;20.80;22.60;;;;;;5044745;28;20900;-53
2020/12/04 11:37:45;;;;;;;6.13;3.42;;;20.60;22.40;;;;;;5008881;28;20205;-51
2020/12/04 11:40:15;;;;;;;9.18;3.47;;;20.60;22.20;;;;;;5043097;28;20760;-51
2020/12/04 11:42:42;;;;;;;3.10;2.80;;;20.60;22.00;;;;;;5045740;28;20174;-51
2020/12/04 11:45:10;;;;;;;3.45;3.15;;;20.60;22.00;;;;;;5026518;28;21430;-51
2020/12/04 11:47:39;;;;;;;4.38;3.38;;;20.60;22.00;;;;;;5025780;28;20177;-52
2020/12/04 11:50:17;;;;;;;3.03;2.72;;;20.60;22.50;;;;;;5030056;28;20196;-51
2020/12/04 11:52:43;;;;;;;3.90;2.75;;;20.60;22.90;;;;;;5059829;28;20873;-50
2020/12/04 11:55:10;;;;;;;8.32;3.00;;;20.60;23.10;;;;;;5048910;28;20177;-51
2020/12/04 11:57:38;;;;;;;5.43;3.55;;;20.50;23.10;;;;;;5032770;28;20280;-52
2020/12/04 12:00:09;;;;;;;6.80;4.07;;;20.50;23.00;;;;;;5033175;28;20221;-51
2020/12/04 12:02:35;;;;;;;6.72;3.35;;;20.50;22.90;;;;;;5040210;28;20852;-52
2020/12/04 12:05:01;;;;;;;4.83;3.33;;;20.50;22.80;;;;;;5029024;28;20257;-51
2020/12/04 12:07:26;;;;;;;5.93;3.60;;;20.50;22.70;;;;;;5028753;28;20632;-50
2020/12/04 12:09:52;;;;;;;6.10;3.37;;;20.50;22.80;;;;;;5033261;28;21050;-51
2020/12/04 12:12:19;;;;;;;8.30;3.43;;;20.50;22.80;;;;;;5048133;28;20243;-52
2020/12/04 12:14:45;;;;;;;4.40;3.15;;;20.50;22.70;;;;;;5049661;28;20173;-52
2020/12/04 12:17:12;;;;;;;5.72;3.00;;;20.50;22.60;;;;;;5010361;28;20416;-52
2020/12/04 12:19:40;;;;;;;4.20;2.60;;;20.50;22.40;;;;;;5031577;28;20731;-54
2020/12/04 12:22:09;;;;;;;4.35;3.17;;;20.50;22.30;;;;;;5064644;28;20259;-53
2020/12/04 12:24:36;;;;;;;4.10;2.85;;;20.50;22.20;;;;;;5060423;28;20235;-53
2020/12/04 12:27:02;;;;;;;11.35;3.33;;;20.50;22.20;;;;;;5037131;28;20269;-54
2020/12/04 12:29:28;;;;;;;6.70;2.55;;;20.40;22.20;;;;;;5051600;28;20165;-52
2020/12/04 12:31:54;;;;;;;8.13;2.97;;;20.50;22.50;;;;;;5054003;28;20949;-52
2020/12/04 12:34:20;;;;;;;5.63;3.08;;;20.50;22.80;;;;;;5040423;28;20536;-53
2020/12/04 12:36:45;;;;;;;6.23;2.60;;;20.50;22.80;;;;;;5022492;28;20212;-51
2020/12/04 12:39:11;;;;;;;5.70;2.70;;;20.50;22.90;;;;;;5064812;28;20597;-52
2020/12/04 12:41:37;;;;;;;4.07;2.83;;;20.50;23.00;;;;;;5061847;28;21138;-53
2020/12/04 12:44:03;;;;;;;4.10;2.43;;;20.50;23.00;;;;;;5033952;28;20173;-53
2020/12/04 12:46:28;;;;;;;5.63;2.63;;;20.50;23.10;;;;;;5037632;28;20655;-53
2020/12/04 12:48:54;;;;;;;5.00;2.63;;;20.50;23.10;;;;;;5054016;28;20174;-53
2020/12/04 12:51:20;;;;;;;3.03;2.67;;;20.50;23.10;;;;;;5055098;28;20184;-53